sensor_id;sensor_type;location;lat;lon;timestamp;P1;durP1;ratioP1;P2;durP2;ratioP2
16689;SDS011;8458;52.220;9.884;2023-08-17T00:00:00;1.80;;;1.30;;
16689;SDS011;8458;52.220;9.884;2023-08-17T00:02:30;1.70;;;1.30;;
16689;SDS011;8458;52.220;9.884;2023-08-17T00:04:57;3.67;;;1.40;;
16689;SDS011;8458;52.220;9.884;2023-08-17T00:07:23;1.80;;;1.20;;
16689;SDS011;8458;52.220;9.884;2023-08-17T00:09:50;3.50;;;1.30;;
16689;SDS011;8458;52.220;9.884;2023-08-17T00:12:16;1.80;;;1.27;;
16689;SDS011;8458;52.220;9.884;2023-08-17T00:14:43;2.03;;;1.40;;
16689;SDS011;8458;52.220;9.884;2023-08-17T00:17:10;2.53;;;1.63;;
16689;SDS011;8458;52.220;9.884;2023-08-17T00:19:37;2.30;;;1.40;;
16689;SDS011;8458;52.220;9.884;2023-08-17T00:22:04;6.60;;;2.07;;
16689;SDS011;8458;52.220;9.884;2023-08-17T00:24:30;3.13;;;1.57;;
16689;SDS011;8458;52.220;9.884;2023-08-17T00:26:57;3.07;;;1.70;;
16689;SDS011;8458;52.220;9.884;2023-08-17T00:29:23;4.13;;;1.70;;
16689;SDS011;8458;52.220;9.884;2023-08-17T00:31:50;2.80;;;1.90;;
16689;SDS011;8458;52.220;9.884;2023-08-17T00:34:17;4.23;;;1.80;;
16689;SDS011;8458;52.220;9.884;2023-08-17T00:36:45;2.27;;;1.50;;
16689;SDS011;8458;52.220;9.884;2023-08-17T00:39:11;2.40;;;1.60;;
16689;SDS011;8458;52.220;9.884;2023-08-17T00:41:38;2.07;;;1.43;;
16689;SDS011;8458;52.220;9.884;2023-08-17T00:44:04;2.97;;;1.57;;
16689;SDS011;8458;52.220;9.884;2023-08-17T00:46:31;2.37;;;1.90;;
16689;SDS011;8458;52.220;9.884;2023-08-17T00:48:58;3.10;;;1.53;;
16689;SDS011;8458;52.220;9.884;2023-08-17T00:51:25;3.03;;;1.63;;
16689;SDS011;8458;52.220;9.884;2023-08-17T00:53:54;3.27;;;2.00;;
16689;SDS011;8458;52.220;9.884;2023-08-17T00:56:24;2.43;;;2.03;;
16689;SDS011;8458;52.220;9.884;2023-08-17T00:58:50;2.20;;;1.57;;
16689;SDS011;8458;52.220;9.884;2023-08-17T01:01:17;2.57;;;1.90;;
16689;SDS011;8458;52.220;9.884;2023-08-17T01:03:44;2.30;;;2.00;;
16689;SDS011;8458;52.220;9.884;2023-08-17T01:06:10;3.17;;;2.20;;
16689;SDS011;8458;52.220;9.884;2023-08-17T01:08:37;2.93;;;2.10;;
16689;SDS011;8458;52.220;9.884;2023-08-17T01:11:09;3.77;;;2.30;;
16689;SDS011;8458;52.220;9.884;2023-08-17T01:13:47;3.37;;;1.90;;
16689;SDS011;8458;52.220;9.884;2023-08-17T01:16:20;4.23;;;2.03;;
16689;SDS011;8458;52.220;9.884;2023-08-17T01:18:59;4.57;;;2.50;;
16689;SDS011;8458;52.220;9.884;2023-08-17T01:21:29;4.90;;;2.93;;
16689;SDS011;8458;52.220;9.884;2023-08-17T01:24:05;2.60;;;2.10;;
16689;SDS011;8458;52.220;9.884;2023-08-17T01:26:31;2.60;;;2.40;;
16689;SDS011;8458;52.220;9.884;2023-08-17T01:28:58;8.63;;;2.37;;
16689;SDS011;8458;52.220;9.884;2023-08-17T01:31:26;2.37;;;1.77;;
16689;SDS011;8458;52.220;9.884;2023-08-17T01:33:58;2.43;;;1.80;;
16689;SDS011;8458;52.220;9.884;2023-08-17T01:36:30;3.00;;;2.10;;
16689;SDS011;8458;52.220;9.884;2023-08-17T01:38:58;3.50;;;1.97;;
16689;SDS011;8458;52.220;9.884;2023-08-17T01:41:27;3.80;;;2.07;;
16689;SDS011;8458;52.220;9.884;2023-08-17T01:43:55;2.37;;;2.10;;
16689;SDS011;8458;52.220;9.884;2023-08-17T01:46:22;2.53;;;1.77;;
16689;SDS011;8458;52.220;9.884;2023-08-17T01:48:49;3.53;;;2.00;;
16689;SDS011;8458;52.220;9.884;2023-08-17T01:51:16;1.93;;;1.73;;
16689;SDS011;8458;52.220;9.884;2023-08-17T01:53:44;2.50;;;2.30;;
16689;SDS011;8458;52.220;9.884;2023-08-17T01:56:11;2.97;;;2.13;;
16689;SDS011;8458;52.220;9.884;2023-08-17T01:58:39;3.00;;;2.20;;
16689;SDS011;8458;52.220;9.884;2023-08-17T02:01:05;2.97;;;2.07;;
16689;SDS011;8458;52.220;9.884;2023-08-17T02:03:32;3.13;;;2.13;;
16689;SDS011;8458;52.220;9.884;2023-08-17T02:05:58;2.33;;;2.13;;
16689;SDS011;8458;52.220;9.884;2023-08-17T02:08:25;2.40;;;1.90;;
16689;SDS011;8458;52.220;9.884;2023-08-17T02:10:52;2.97;;;2.40;;
16689;SDS011;8458;52.220;9.884;2023-08-17T02:13:18;2.40;;;2.13;;
16689;SDS011;8458;52.220;9.884;2023-08-17T02:15:47;2.53;;;2.30;;
16689;SDS011;8458;52.220;9.884;2023-08-17T02:18:13;3.03;;;2.53;;
16689;SDS011;8458;52.220;9.884;2023-08-17T02:20:40;3.00;;;2.50;;
16689;SDS011;8458;52.220;9.884;2023-08-17T02:23:06;2.67;;;2.47;;
16689;SDS011;8458;52.220;9.884;2023-08-17T02:25:33;2.93;;;2.57;;
16689;SDS011;8458;52.220;9.884;2023-08-17T02:28:00;2.60;;;2.40;;
16689;SDS011;8458;52.220;9.884;2023-08-17T02:30:27;2.80;;;2.43;;
16689;SDS011;8458;52.220;9.884;2023-08-17T02:32:55;3.03;;;2.50;;
16689;SDS011;8458;52.220;9.884;2023-08-17T02:35:21;3.13;;;2.83;;
16689;SDS011;8458;52.220;9.884;2023-08-17T02:37:48;3.93;;;2.50;;
16689;SDS011;8458;52.220;9.884;2023-08-17T02:40:15;2.70;;;2.50;;
16689;SDS011;8458;52.220;9.884;2023-08-17T02:42:41;2.80;;;2.60;;
16689;SDS011;8458;52.220;9.884;2023-08-17T02:45:08;3.30;;;2.67;;
16689;SDS011;8458;52.220;9.884;2023-08-17T02:47:35;2.67;;;2.40;;
16689;SDS011;8458;52.220;9.884;2023-08-17T02:50:03;2.73;;;2.53;;
16689;SDS011;8458;52.220;9.884;2023-08-17T02:52:30;2.80;;;2.60;;
16689;SDS011;8458;52.220;9.884;2023-08-17T02:54:57;3.23;;;2.70;;
16689;SDS011;8458;52.220;9.884;2023-08-17T02:57:23;2.70;;;2.50;;
16689;SDS011;8458;52.220;9.884;2023-08-17T02:59:50;2.70;;;2.47;;
16689;SDS011;8458;52.220;9.884;2023-08-17T03:02:16;3.00;;;2.70;;
16689;SDS011;8458;52.220;9.884;2023-08-17T03:04:43;3.53;;;2.70;;
16689;SDS011;8458;52.220;9.884;2023-08-17T03:07:10;2.63;;;2.30;;
16689;SDS011;8458;52.220;9.884;2023-08-17T03:09:37;2.90;;;2.70;;
16689;SDS011;8458;52.220;9.884;2023-08-17T03:12:04;2.20;;;2.10;;
16689;SDS011;8458;52.220;9.884;2023-08-17T03:14:30;2.97;;;2.10;;
16689;SDS011;8458;52.220;9.884;2023-08-17T03:16:57;2.70;;;2.13;;
16689;SDS011;8458;52.220;9.884;2023-08-17T03:19:23;2.57;;;2.30;;
16689;SDS011;8458;52.220;9.884;2023-08-17T03:21:50;3.13;;;1.93;;
16689;SDS011;8458;52.220;9.884;2023-08-17T03:24:18;2.27;;;2.10;;
16689;SDS011;8458;52.220;9.884;2023-08-17T03:26:44;2.13;;;1.93;;
16689;SDS011;8458;52.220;9.884;2023-08-17T03:29:11;2.03;;;1.90;;
16689;SDS011;8458;52.220;9.884;2023-08-17T03:31:37;2.43;;;1.63;;
16689;SDS011;8458;52.220;9.884;2023-08-17T03:34:04;2.17;;;1.70;;
16689;SDS011;8458;52.220;9.884;2023-08-17T03:36:30;2.03;;;1.83;;
16689;SDS011;8458;52.220;9.884;2023-08-17T03:38:57;2.00;;;1.80;;
16689;SDS011;8458;52.220;9.884;2023-08-17T03:41:24;1.70;;;1.60;;
16689;SDS011;8458;52.220;9.884;2023-08-17T03:43:51;1.70;;;1.60;;
16689;SDS011;8458;52.220;9.884;2023-08-17T03:46:17;1.70;;;1.57;;
16689;SDS011;8458;52.220;9.884;2023-08-17T03:48:44;2.10;;;1.67;;
16689;SDS011;8458;52.220;9.884;2023-08-17T03:51:10;1.90;;;1.57;;
16689;SDS011;8458;52.220;9.884;2023-08-17T03:53:37;1.67;;;1.57;;
16689;SDS011;8458;52.220;9.884;2023-08-17T03:56:03;1.80;;;1.70;;
16689;SDS011;8458;52.220;9.884;2023-08-17T03:58:31;1.77;;;1.60;;
16689;SDS011;8458;52.220;9.884;2023-08-17T04:00:59;1.67;;;1.57;;
16689;SDS011;8458;52.220;9.884;2023-08-17T04:03:26;1.93;;;1.70;;
16689;SDS011;8458;52.220;9.884;2023-08-17T04:05:52;1.90;;;1.80;;
16689;SDS011;8458;52.220;9.884;2023-08-17T04:08:19;1.67;;;1.57;;
16689;SDS011;8458;52.220;9.884;2023-08-17T04:10:45;1.80;;;1.70;;
16689;SDS011;8458;52.220;9.884;2023-08-17T04:13:12;1.80;;;1.70;;
16689;SDS011;8458;52.220;9.884;2023-08-17T04:15:40;2.13;;;1.57;;
16689;SDS011;8458;52.220;9.884;2023-08-17T04:18:06;1.50;;;1.40;;
16689;SDS011;8458;52.220;9.884;2023-08-17T04:20:33;1.67;;;1.57;;
16689;SDS011;8458;52.220;9.884;2023-08-17T04:22:59;1.80;;;1.70;;
16689;SDS011;8458;52.220;9.884;2023-08-17T04:25:26;1.67;;;1.57;;
16689;SDS011;8458;52.220;9.884;2023-08-17T04:27:52;2.77;;;2.10;;
16689;SDS011;8458;52.220;9.884;2023-08-17T04:30:18;1.80;;;1.70;;
16689;SDS011;8458;52.220;9.884;2023-08-17T04:32:47;2.13;;;1.93;;
16689;SDS011;8458;52.220;9.884;2023-08-17T04:35:17;2.03;;;1.93;;
16689;SDS011;8458;52.220;9.884;2023-08-17T04:37:43;2.30;;;2.10;;
16689;SDS011;8458;52.220;9.884;2023-08-17T04:40:10;2.10;;;1.90;;
16689;SDS011;8458;52.220;9.884;2023-08-17T04:42:37;2.57;;;1.80;;
16689;SDS011;8458;52.220;9.884;2023-08-17T04:45:04;2.17;;;2.07;;
16689;SDS011;8458;52.220;9.884;2023-08-17T04:47:31;2.30;;;1.97;;
16689;SDS011;8458;52.220;9.884;2023-08-17T04:49:59;8.63;;;2.30;;
16689;SDS011;8458;52.220;9.884;2023-08-17T04:52:26;2.17;;;2.00;;
16689;SDS011;8458;52.220;9.884;2023-08-17T04:54:52;2.60;;;2.40;;
16689;SDS011;8458;52.220;9.884;2023-08-17T04:57:18;2.30;;;2.20;;
16689;SDS011;8458;52.220;9.884;2023-08-17T04:59:45;2.50;;;2.30;;
16689;SDS011;8458;52.220;9.884;2023-08-17T05:02:11;2.67;;;2.47;;
16689;SDS011;8458;52.220;9.884;2023-08-17T05:04:38;2.50;;;2.30;;
16689;SDS011;8458;52.220;9.884;2023-08-17T05:07:06;2.80;;;2.60;;
16689;SDS011;8458;52.220;9.884;2023-08-17T05:09:33;2.47;;;2.37;;
16689;SDS011;8458;52.220;9.884;2023-08-17T05:11:59;2.50;;;2.30;;
16689;SDS011;8458;52.220;9.884;2023-08-17T05:14:26;2.63;;;2.43;;
16689;SDS011;8458;52.220;9.884;2023-08-17T05:16:52;3.13;;;2.90;;
16689;SDS011;8458;52.220;9.884;2023-08-17T05:19:19;2.87;;;2.67;;
16689;SDS011;8458;52.220;9.884;2023-08-17T05:21:45;2.70;;;2.57;;
16689;SDS011;8458;52.220;9.884;2023-08-17T05:24:15;2.50;;;2.40;;
16689;SDS011;8458;52.220;9.884;2023-08-17T05:26:42;2.60;;;2.43;;
16689;SDS011;8458;52.220;9.884;2023-08-17T05:29:08;3.00;;;2.80;;
16689;SDS011;8458;52.220;9.884;2023-08-17T05:31:36;2.73;;;2.53;;
16689;SDS011;8458;52.220;9.884;2023-08-17T05:34:02;3.20;;;2.93;;
16689;SDS011;8458;52.220;9.884;2023-08-17T05:36:29;3.07;;;2.87;;
16689;SDS011;8458;52.220;9.884;2023-08-17T05:38:56;3.03;;;2.83;;
16689;SDS011;8458;52.220;9.884;2023-08-17T05:41:24;2.60;;;2.50;;
16689;SDS011;8458;52.220;9.884;2023-08-17T05:43:50;3.63;;;3.00;;
16689;SDS011;8458;52.220;9.884;2023-08-17T05:46:17;3.20;;;3.00;;
16689;SDS011;8458;52.220;9.884;2023-08-17T05:48:43;3.13;;;2.93;;
16689;SDS011;8458;52.220;9.884;2023-08-17T05:51:10;3.50;;;3.30;;
16689;SDS011;8458;52.220;9.884;2023-08-17T05:53:36;3.63;;;3.33;;
16689;SDS011;8458;52.220;9.884;2023-08-17T05:56:03;3.50;;;3.30;;
16689;SDS011;8458;52.220;9.884;2023-08-17T05:58:31;3.87;;;3.57;;
16689;SDS011;8458;52.220;9.884;2023-08-17T06:01:03;3.83;;;3.63;;
16689;SDS011;8458;52.220;9.884;2023-08-17T06:03:30;3.50;;;3.30;;
16689;SDS011;8458;52.220;9.884;2023-08-17T06:05:57;3.47;;;3.27;;
16689;SDS011;8458;52.220;9.884;2023-08-17T06:08:23;3.50;;;3.20;;
16689;SDS011;8458;52.220;9.884;2023-08-17T06:10:50;3.80;;;3.57;;
16689;SDS011;8458;52.220;9.884;2023-08-17T06:13:16;3.80;;;3.60;;
16689;SDS011;8458;52.220;9.884;2023-08-17T06:15:44;3.80;;;3.60;;
16689;SDS011;8458;52.220;9.884;2023-08-17T06:18:10;3.47;;;3.27;;
16689;SDS011;8458;52.220;9.884;2023-08-17T06:20:37;3.67;;;3.37;;
16689;SDS011;8458;52.220;9.884;2023-08-17T06:23:03;4.60;;;4.20;;
16689;SDS011;8458;52.220;9.884;2023-08-17T06:25:30;4.10;;;3.70;;
16689;SDS011;8458;52.220;9.884;2023-08-17T06:27:56;3.70;;;3.50;;
16689;SDS011;8458;52.220;9.884;2023-08-17T06:30:23;3.67;;;3.47;;
16689;SDS011;8458;52.220;9.884;2023-08-17T06:32:51;4.93;;;4.03;;
16689;SDS011;8458;52.220;9.884;2023-08-17T06:35:18;4.20;;;3.90;;
16689;SDS011;8458;52.220;9.884;2023-08-17T06:37:44;4.10;;;3.87;;
16689;SDS011;8458;52.220;9.884;2023-08-17T06:40:11;4.33;;;4.03;;
16689;SDS011;8458;52.220;9.884;2023-08-17T06:42:37;3.50;;;3.30;;
16689;SDS011;8458;52.220;9.884;2023-08-17T06:45:04;4.40;;;4.20;;
16689;SDS011;8458;52.220;9.884;2023-08-17T06:47:31;4.03;;;3.83;;
16689;SDS011;8458;52.220;9.884;2023-08-17T06:49:59;3.80;;;3.50;;
16689;SDS011;8458;52.220;9.884;2023-08-17T06:52:26;4.00;;;3.70;;
16689;SDS011;8458;52.220;9.884;2023-08-17T06:54:52;3.80;;;3.50;;
16689;SDS011;8458;52.220;9.884;2023-08-17T06:57:19;3.53;;;3.23;;
16689;SDS011;8458;52.220;9.884;2023-08-17T06:59:46;3.67;;;3.47;;
16689;SDS011;8458;52.220;9.884;2023-08-17T07:02:13;3.90;;;3.60;;
16689;SDS011;8458;52.220;9.884;2023-08-17T07:04:39;3.50;;;3.17;;
16689;SDS011;8458;52.220;9.884;2023-08-17T07:07:07;3.17;;;2.97;;
16689;SDS011;8458;52.220;9.884;2023-08-17T07:09:34;3.10;;;2.90;;
16689;SDS011;8458;52.220;9.884;2023-08-17T07:12:00;2.90;;;2.80;;
16689;SDS011;8458;52.220;9.884;2023-08-17T07:14:27;2.77;;;2.60;;
16689;SDS011;8458;52.220;9.884;2023-08-17T07:16:53;2.90;;;2.80;;
16689;SDS011;8458;52.220;9.884;2023-08-17T07:19:21;2.80;;;2.60;;
16689;SDS011;8458;52.220;9.884;2023-08-17T07:21:48;2.63;;;2.53;;
16689;SDS011;8458;52.220;9.884;2023-08-17T07:24:16;2.83;;;2.60;;
16689;SDS011;8458;52.220;9.884;2023-08-17T07:26:42;2.43;;;2.33;;
16689;SDS011;8458;52.220;9.884;2023-08-17T07:29:09;2.13;;;2.03;;
16689;SDS011;8458;52.220;9.884;2023-08-17T07:31:36;2.60;;;2.40;;
16689;SDS011;8458;52.220;9.884;2023-08-17T07:34:03;2.27;;;2.10;;
16689;SDS011;8458;52.220;9.884;2023-08-17T07:36:30;2.00;;;1.90;;
16689;SDS011;8458;52.220;9.884;2023-08-17T07:38:56;1.80;;;1.70;;
16689;SDS011;8458;52.220;9.884;2023-08-17T07:41:24;2.30;;;2.10;;
16689;SDS011;8458;52.220;9.884;2023-08-17T07:43:51;2.20;;;2.10;;
16689;SDS011;8458;52.220;9.884;2023-08-17T07:46:17;2.33;;;2.07;;
16689;SDS011;8458;52.220;9.884;2023-08-17T07:48:44;2.10;;;2.00;;
16689;SDS011;8458;52.220;9.884;2023-08-17T07:51:10;2.13;;;1.93;;
16689;SDS011;8458;52.220;9.884;2023-08-17T07:53:38;2.00;;;1.90;;
16689;SDS011;8458;52.220;9.884;2023-08-17T07:56:08;2.23;;;2.00;;
16689;SDS011;8458;52.220;9.884;2023-08-17T07:58:35;2.10;;;2.00;;
16689;SDS011;8458;52.220;9.884;2023-08-17T08:01:02;2.60;;;2.40;;
16689;SDS011;8458;52.220;9.884;2023-08-17T08:03:28;2.10;;;2.00;;
16689;SDS011;8458;52.220;9.884;2023-08-17T08:05:55;2.17;;;2.00;;
16689;SDS011;8458;52.220;9.884;2023-08-17T08:08:21;2.33;;;2.23;;
16689;SDS011;8458;52.220;9.884;2023-08-17T08:10:48;2.43;;;2.30;;
16689;SDS011;8458;52.220;9.884;2023-08-17T08:13:14;2.10;;;2.00;;
16689;SDS011;8458;52.220;9.884;2023-08-17T08:15:42;2.30;;;2.20;;
16689;SDS011;8458;52.220;9.884;2023-08-17T08:18:09;2.13;;;2.03;;
16689;SDS011;8458;52.220;9.884;2023-08-17T08:20:35;2.17;;;2.00;;
16689;SDS011;8458;52.220;9.884;2023-08-17T08:23:02;2.13;;;2.03;;
16689;SDS011;8458;52.220;9.884;2023-08-17T08:25:29;2.50;;;2.33;;
16689;SDS011;8458;52.220;9.884;2023-08-17T08:27:55;2.20;;;2.10;;
16689;SDS011;8458;52.220;9.884;2023-08-17T08:30:22;2.27;;;2.07;;
16689;SDS011;8458;52.220;9.884;2023-08-17T08:32:50;2.50;;;2.40;;
16689;SDS011;8458;52.220;9.884;2023-08-17T08:35:16;2.30;;;2.20;;
16689;SDS011;8458;52.220;9.884;2023-08-17T08:37:43;2.43;;;2.23;;
16689;SDS011;8458;52.220;9.884;2023-08-17T08:40:10;2.60;;;2.40;;
16689;SDS011;8458;52.220;9.884;2023-08-17T08:42:38;2.63;;;2.53;;
16689;SDS011;8458;52.220;9.884;2023-08-17T08:45:05;2.37;;;2.13;;
16689;SDS011;8458;52.220;9.884;2023-08-17T08:47:32;2.63;;;2.43;;
16689;SDS011;8458;52.220;9.884;2023-08-17T08:50:02;2.43;;;2.33;;
16689;SDS011;8458;52.220;9.884;2023-08-17T08:52:32;2.63;;;2.43;;
16689;SDS011;8458;52.220;9.884;2023-08-17T08:55:01;2.90;;;2.70;;
16689;SDS011;8458;52.220;9.884;2023-08-17T08:57:34;3.10;;;3.00;;
16689;SDS011;8458;52.220;9.884;2023-08-17T09:00:01;2.97;;;2.77;;
16689;SDS011;8458;52.220;9.884;2023-08-17T09:02:28;3.00;;;2.80;;
16689;SDS011;8458;52.220;9.884;2023-08-17T09:04:56;3.47;;;2.77;;
16689;SDS011;8458;52.220;9.884;2023-08-17T09:07:24;2.83;;;2.67;;
16689;SDS011;8458;52.220;9.884;2023-08-17T09:09:52;3.50;;;3.23;;
16689;SDS011;8458;52.220;9.884;2023-08-17T09:12:19;3.23;;;3.03;;
16689;SDS011;8458;52.220;9.884;2023-08-17T09:14:45;3.00;;;2.80;;
16689;SDS011;8458;52.220;9.884;2023-08-17T09:17:12;3.70;;;3.40;;
16689;SDS011;8458;52.220;9.884;2023-08-17T09:19:38;3.67;;;3.37;;
16689;SDS011;8458;52.220;9.884;2023-08-17T09:22:05;3.50;;;3.30;;
16689;SDS011;8458;52.220;9.884;2023-08-17T09:24:35;3.47;;;3.27;;
16689;SDS011;8458;52.220;9.884;2023-08-17T09:27:02;3.50;;;3.30;;
16689;SDS011;8458;52.220;9.884;2023-08-17T09:29:30;3.40;;;3.20;;
16689;SDS011;8458;52.220;9.884;2023-08-17T09:32:03;3.60;;;3.30;;
16689;SDS011;8458;52.220;9.884;2023-08-17T09:34:31;3.30;;;3.10;;
16689;SDS011;8458;52.220;9.884;2023-08-17T09:37:02;3.20;;;3.10;;
16689;SDS011;8458;52.220;9.884;2023-08-17T09:39:28;3.67;;;3.47;;
16689;SDS011;8458;52.220;9.884;2023-08-17T09:41:56;3.10;;;3.00;;
16689;SDS011;8458;52.220;9.884;2023-08-17T09:44:23;3.00;;;2.90;;
16689;SDS011;8458;52.220;9.884;2023-08-17T09:46:49;3.03;;;2.93;;
16689;SDS011;8458;52.220;9.884;2023-08-17T09:49:16;2.40;;;2.30;;
16689;SDS011;8458;52.220;9.884;2023-08-17T09:51:43;2.40;;;2.30;;
16689;SDS011;8458;52.220;9.884;2023-08-17T09:54:16;2.30;;;2.20;;
16689;SDS011;8458;52.220;9.884;2023-08-17T09:56:46;2.93;;;2.73;;
16689;SDS011;8458;52.220;9.884;2023-08-17T09:59:14;2.70;;;2.50;;
16689;SDS011;8458;52.220;9.884;2023-08-17T10:01:40;2.10;;;2.00;;
16689;SDS011;8458;52.220;9.884;2023-08-17T10:04:08;2.30;;;2.10;;
16689;SDS011;8458;52.220;9.884;2023-08-17T10:06:36;2.70;;;2.50;;
16689;SDS011;8458;52.220;9.884;2023-08-17T10:09:05;2.90;;;1.87;;
16689;SDS011;8458;52.220;9.884;2023-08-17T10:11:34;1.57;;;1.57;;
16689;SDS011;8458;52.220;9.884;2023-08-17T10:14:06;1.70;;;1.60;;
16689;SDS011;8458;52.220;9.884;2023-08-17T10:16:43;4.87;;;4.47;;
16689;SDS011;8458;52.220;9.884;2023-08-17T10:19:12;1.90;;;1.80;;
16689;SDS011;8458;52.220;9.884;2023-08-17T10:21:45;2.10;;;2.00;;
16689;SDS011;8458;52.220;9.884;2023-08-17T10:24:16;1.93;;;1.83;;
16689;SDS011;8458;52.220;9.884;2023-08-17T10:26:45;1.80;;;1.70;;
16689;SDS011;8458;52.220;9.884;2023-08-17T10:29:12;1.77;;;1.67;;
16689;SDS011;8458;52.220;9.884;2023-08-17T10:31:39;1.80;;;1.70;;
16689;SDS011;8458;52.220;9.884;2023-08-17T10:34:11;1.83;;;1.73;;
16689;SDS011;8458;52.220;9.884;2023-08-17T10:36:38;1.70;;;1.60;;
16689;SDS011;8458;52.220;9.884;2023-08-17T10:39:18;1.77;;;1.67;;
16689;SDS011;8458;52.220;9.884;2023-08-17T10:41:46;1.47;;;1.47;;
16689;SDS011;8458;52.220;9.884;2023-08-17T10:44:13;2.30;;;2.20;;
16689;SDS011;8458;52.220;9.884;2023-08-17T10:46:40;1.73;;;1.63;;
16689;SDS011;8458;52.220;9.884;2023-08-17T10:49:24;1.93;;;1.83;;
16689;SDS011;8458;52.220;9.884;2023-08-17T10:52:04;2.27;;;2.00;;
16689;SDS011;8458;52.220;9.884;2023-08-17T10:54:36;2.20;;;2.10;;
16689;SDS011;8458;52.220;9.884;2023-08-17T11:00:04;2.97;;;2.70;;
16689;SDS011;8458;52.220;9.884;2023-08-17T11:02:32;3.13;;;2.97;;
16689;SDS011;8458;52.220;9.884;2023-08-17T11:05:01;3.00;;;2.90;;
16689;SDS011;8458;52.220;9.884;2023-08-17T11:07:28;3.50;;;3.30;;
16689;SDS011;8458;52.220;9.884;2023-08-17T11:10:10;3.80;;;3.70;;
16689;SDS011;8458;52.220;9.884;2023-08-17T11:12:37;4.50;;;4.30;;
16689;SDS011;8458;52.220;9.884;2023-08-17T11:15:04;4.07;;;3.87;;
16689;SDS011;8458;52.220;9.884;2023-08-17T11:17:31;4.27;;;4.07;;
16689;SDS011;8458;52.220;9.884;2023-08-17T11:19:58;4.40;;;4.20;;
16689;SDS011;8458;52.220;9.884;2023-08-17T11:22:25;4.70;;;4.50;;
16689;SDS011;8458;52.220;9.884;2023-08-17T11:24:52;4.60;;;4.40;;
16689;SDS011;8458;52.220;9.884;2023-08-17T11:27:19;5.00;;;4.70;;
16689;SDS011;8458;52.220;9.884;2023-08-17T11:29:46;5.10;;;4.87;;
16689;SDS011;8458;52.220;9.884;2023-08-17T11:32:15;5.07;;;4.77;;
16689;SDS011;8458;52.220;9.884;2023-08-17T11:34:42;5.60;;;5.30;;
16689;SDS011;8458;52.220;9.884;2023-08-17T11:37:10;5.40;;;5.10;;
16689;SDS011;8458;52.220;9.884;2023-08-17T11:39:38;5.30;;;5.10;;
16689;SDS011;8458;52.220;9.884;2023-08-17T11:42:05;5.70;;;5.40;;
16689;SDS011;8458;52.220;9.884;2023-08-17T11:44:32;6.03;;;5.73;;
16689;SDS011;8458;52.220;9.884;2023-08-17T11:46:59;5.90;;;5.50;;
16689;SDS011;8458;52.220;9.884;2023-08-17T11:49:26;6.30;;;5.80;;
16689;SDS011;8458;52.220;9.884;2023-08-17T11:51:52;5.60;;;5.30;;
16689;SDS011;8458;52.220;9.884;2023-08-17T11:54:19;5.73;;;5.33;;
16689;SDS011;8458;52.220;9.884;2023-08-17T11:56:48;5.43;;;5.10;;
16689;SDS011;8458;52.220;9.884;2023-08-17T11:59:15;5.27;;;4.97;;
16689;SDS011;8458;52.220;9.884;2023-08-17T12:01:43;5.50;;;5.20;;
16689;SDS011;8458;52.220;9.884;2023-08-17T12:04:11;5.47;;;5.17;;
16689;SDS011;8458;52.220;9.884;2023-08-17T12:06:38;5.10;;;4.80;;
16689;SDS011;8458;52.220;9.884;2023-08-17T12:09:09;5.50;;;5.10;;
16689;SDS011;8458;52.220;9.884;2023-08-17T12:11:37;5.23;;;4.87;;
16689;SDS011;8458;52.220;9.884;2023-08-17T12:14:09;4.83;;;4.43;;
16689;SDS011;8458;52.220;9.884;2023-08-17T12:16:44;4.43;;;4.20;;
16689;SDS011;8458;52.220;9.884;2023-08-17T12:19:11;4.60;;;4.30;;
16689;SDS011;8458;52.220;9.884;2023-08-17T12:21:38;4.70;;;4.47;;
16689;SDS011;8458;52.220;9.884;2023-08-17T12:24:08;5.07;;;4.77;;
16689;SDS011;8458;52.220;9.884;2023-08-17T12:26:34;4.37;;;4.07;;
16689;SDS011;8458;52.220;9.884;2023-08-17T12:29:04;4.53;;;4.23;;
16689;SDS011;8458;52.220;9.884;2023-08-17T12:31:33;4.33;;;4.03;;
16689;SDS011;8458;52.220;9.884;2023-08-17T12:34:00;4.83;;;4.53;;
16689;SDS011;8458;52.220;9.884;2023-08-17T12:36:26;5.03;;;4.73;;
16689;SDS011;8458;52.220;9.884;2023-08-17T12:38:53;5.20;;;4.90;;
16689;SDS011;8458;52.220;9.884;2023-08-17T12:41:20;5.27;;;4.93;;
16689;SDS011;8458;52.220;9.884;2023-08-17T12:43:47;5.10;;;4.70;;
16689;SDS011;8458;52.220;9.884;2023-08-17T12:46:13;5.37;;;4.97;;
16689;SDS011;8458;52.220;9.884;2023-08-17T12:48:41;5.10;;;4.80;;
16689;SDS011;8458;52.220;9.884;2023-08-17T12:51:08;4.17;;;3.87;;
16689;SDS011;8458;52.220;9.884;2023-08-17T12:53:34;4.20;;;3.90;;
16689;SDS011;8458;52.220;9.884;2023-08-17T12:56:00;4.43;;;4.07;;
16689;SDS011;8458;52.220;9.884;2023-08-17T12:58:27;3.90;;;3.60;;
16689;SDS011;8458;52.220;9.884;2023-08-17T13:00:54;4.70;;;4.20;;
16689;SDS011;8458;52.220;9.884;2023-08-17T13:03:20;4.43;;;4.13;;
16689;SDS011;8458;52.220;9.884;2023-08-17T13:05:48;4.30;;;4.00;;
16689;SDS011;8458;52.220;9.884;2023-08-17T13:08:14;4.67;;;4.27;;
16689;SDS011;8458;52.220;9.884;2023-08-17T13:10:41;4.37;;;4.03;;
16689;SDS011;8458;52.220;9.884;2023-08-17T13:13:07;3.90;;;3.70;;
16689;SDS011;8458;52.220;9.884;2023-08-17T13:15:34;4.57;;;4.17;;
16689;SDS011;8458;52.220;9.884;2023-08-17T13:18:00;5.03;;;4.63;;
16689;SDS011;8458;52.220;9.884;2023-08-17T13:20:27;5.23;;;4.90;;
16689;SDS011;8458;52.220;9.884;2023-08-17T13:22:55;5.03;;;4.63;;
16689;SDS011;8458;52.220;9.884;2023-08-17T13:25:21;5.10;;;4.70;;
16689;SDS011;8458;52.220;9.884;2023-08-17T13:27:48;6.47;;;6.07;;
16689;SDS011;8458;52.220;9.884;2023-08-17T13:30:14;6.47;;;5.97;;
16689;SDS011;8458;52.220;9.884;2023-08-17T13:32:41;6.63;;;6.13;;
16689;SDS011;8458;52.220;9.884;2023-08-17T13:35:08;6.90;;;6.40;;
16689;SDS011;8458;52.220;9.884;2023-08-17T13:37:36;6.10;;;5.60;;
16689;SDS011;8458;52.220;9.884;2023-08-17T13:40:04;5.57;;;5.17;;
16689;SDS011;8458;52.220;9.884;2023-08-17T13:42:31;5.50;;;5.10;;
16689;SDS011;8458;52.220;9.884;2023-08-17T13:44:58;6.40;;;5.83;;
16689;SDS011;8458;52.220;9.884;2023-08-17T13:47:25;6.40;;;6.00;;
16689;SDS011;8458;52.220;9.884;2023-08-17T13:49:51;6.77;;;6.13;;
16689;SDS011;8458;52.220;9.884;2023-08-17T13:52:18;7.23;;;6.73;;
16689;SDS011;8458;52.220;9.884;2023-08-17T13:54:44;7.20;;;6.70;;
16689;SDS011;8458;52.220;9.884;2023-08-17T13:57:12;7.10;;;6.60;;
16689;SDS011;8458;52.220;9.884;2023-08-17T13:59:39;8.13;;;6.97;;
16689;SDS011;8458;52.220;9.884;2023-08-17T14:04:50;7.83;;;7.13;;
16689;SDS011;8458;52.220;9.884;2023-08-17T14:07:17;7.60;;;7.00;;
16689;SDS011;8458;52.220;9.884;2023-08-17T14:09:43;8.10;;;7.40;;
16689;SDS011;8458;52.220;9.884;2023-08-17T14:12:10;9.13;;;8.33;;
16689;SDS011;8458;52.220;9.884;2023-08-17T14:14:37;10.30;;;8.43;;
16689;SDS011;8458;52.220;9.884;2023-08-17T14:17:04;9.30;;;8.50;;
16689;SDS011;8458;52.220;9.884;2023-08-17T14:19:30;9.27;;;8.47;;
16689;SDS011;8458;52.220;9.884;2023-08-17T14:21:57;9.33;;;8.60;;
16689;SDS011;8458;52.220;9.884;2023-08-17T14:24:25;9.03;;;8.23;;
16689;SDS011;8458;52.220;9.884;2023-08-17T14:26:52;7.10;;;6.53;;
16689;SDS011;8458;52.220;9.884;2023-08-17T14:29:18;7.80;;;7.20;;
16689;SDS011;8458;52.220;9.884;2023-08-17T14:34:32;9.60;;;8.70;;
16689;SDS011;8458;52.220;9.884;2023-08-17T14:36:59;8.23;;;7.57;;
16689;SDS011;8458;52.220;9.884;2023-08-17T14:39:25;9.40;;;8.10;;
16689;SDS011;8458;52.220;9.884;2023-08-17T14:41:52;9.43;;;8.43;;
16689;SDS011;8458;52.220;9.884;2023-08-17T14:44:19;9.03;;;8.10;;
16689;SDS011;8458;52.220;9.884;2023-08-17T14:46:46;9.13;;;8.33;;
16689;SDS011;8458;52.220;9.884;2023-08-17T14:49:13;9.27;;;8.47;;
16689;SDS011;8458;52.220;9.884;2023-08-17T14:51:40;9.07;;;8.27;;
16689;SDS011;8458;52.220;9.884;2023-08-17T14:54:08;9.37;;;8.57;;
16689;SDS011;8458;52.220;9.884;2023-08-17T14:56:35;9.40;;;8.60;;
16689;SDS011;8458;52.220;9.884;2023-08-17T14:59:02;8.63;;;7.93;;
16689;SDS011;8458;52.220;9.884;2023-08-17T15:01:28;9.50;;;8.70;;
16689;SDS011;8458;52.220;9.884;2023-08-17T15:03:55;8.17;;;7.57;;
16689;SDS011;8458;52.220;9.884;2023-08-17T15:06:23;8.33;;;7.63;;
16689;SDS011;8458;52.220;9.884;2023-08-17T15:08:50;7.70;;;7.17;;